sensor_id;sensor_type;location;lat;lon;timestamp;temperature;humidity
36790;DHT22;22740;52.182;8.780;2022-07-06T00:01:45;16.60;99.90
36790;DHT22;22740;52.182;8.780;2022-07-06T00:07:47;16.60;99.90
36790;DHT22;22740;52.182;8.780;2022-07-06T00:13:48;16.60;99.90
36790;DHT22;22740;52.182;8.780;2022-07-06T00:19:50;16.40;99.90
36790;DHT22;22740;52.182;8.780;2022-07-06T00:25:52;16.50;99.90
36790;DHT22;22740;52.182;8.780;2022-07-06T00:31:54;16.50;99.90
36790;DHT22;22740;52.182;8.780;2022-07-06T00:37:56;16.40;99.90
36790;DHT22;22740;52.182;8.780;2022-07-06T00:43:57;16.30;99.90
36790;DHT22;22740;52.182;8.780;2022-07-06T00:49:59;16.20;99.90
36790;DHT22;22740;52.182;8.780;2022-07-06T00:56:16;16.10;99.90
36790;DHT22;22740;52.182;8.780;2022-07-06T01:02:18;16.10;99.90
36790;DHT22;22740;52.182;8.780;2022-07-06T01:08:22;16.00;99.90
36790;DHT22;22740;52.182;8.780;2022-07-06T01:14:25;15.90;99.90
36790;DHT22;22740;52.182;8.780;2022-07-06T01:20:29;15.80;99.90
36790;DHT22;22740;52.182;8.780;2022-07-06T01:26:31;15.80;99.90
36790;DHT22;22740;52.182;8.780;2022-07-06T01:32:33;15.80;99.90
36790;DHT22;22740;52.182;8.780;2022-07-06T01:38:53;15.70;99.90
36790;DHT22;22740;52.182;8.780;2022-07-06T01:44:55;15.60;99.90
36790;DHT22;22740;52.182;8.780;2022-07-06T01:50:59;15.60;99.90
36790;DHT22;22740;52.182;8.780;2022-07-06T01:57:00;15.50;99.90
36790;DHT22;22740;52.182;8.780;2022-07-06T02:03:02;15.60;99.90
36790;DHT22;22740;52.182;8.780;2022-07-06T02:09:04;15.40;99.90
36790;DHT22;22740;52.182;8.780;2022-07-06T02:15:06;15.30;99.90
36790;DHT22;22740;52.182;8.780;2022-07-06T02:21:08;15.30;99.90
36790;DHT22;22740;52.182;8.780;2022-07-06T02:27:10;15.30;99.90
36790;DHT22;22740;52.182;8.780;2022-07-06T02:33:12;15.30;99.90
36790;DHT22;22740;52.182;8.780;2022-07-06T02:39:14;15.30;99.90
36790;DHT22;22740;52.182;8.780;2022-07-06T02:45:16;15.30;99.90
36790;DHT22;22740;52.182;8.780;2022-07-06T02:51:18;15.20;99.90
36790;DHT22;22740;52.182;8.780;2022-07-06T02:57:19;15.20;99.90
36790;DHT22;22740;52.182;8.780;2022-07-06T03:03:21;15.10;99.90
36790;DHT22;22740;52.182;8.780;2022-07-06T03:09:23;15.10;99.90
36790;DHT22;22740;52.182;8.780;2022-07-06T03:15:25;15.00;99.90
36790;DHT22;22740;52.182;8.780;2022-07-06T03:21:27;14.90;99.90
36790;DHT22;22740;52.182;8.780;2022-07-06T03:27:29;14.70;99.90
36790;DHT22;22740;52.182;8.780;2022-07-06T03:33:30;14.70;99.90
36790;DHT22;22740;52.182;8.780;2022-07-06T03:39:32;14.80;99.90
36790;DHT22;22740;52.182;8.780;2022-07-06T03:45:34;14.80;99.90
36790;DHT22;22740;52.182;8.780;2022-07-06T03:51:36;14.80;99.90
36790;DHT22;22740;52.182;8.780;2022-07-06T03:57:38;14.60;99.90
36790;DHT22;22740;52.182;8.780;2022-07-06T04:03:42;14.50;99.90
36790;DHT22;22740;52.182;8.780;2022-07-06T04:09:43;14.40;99.90
36790;DHT22;22740;52.182;8.780;2022-07-06T04:15:45;14.40;99.90
36790;DHT22;22740;52.182;8.780;2022-07-06T04:21:47;14.40;99.90
36790;DHT22;22740;52.182;8.780;2022-07-06T04:27:49;14.50;99.90
36790;DHT22;22740;52.182;8.780;2022-07-06T04:33:50;14.60;99.90
36790;DHT22;22740;52.182;8.780;2022-07-06T04:39:52;14.60;99.90
36790;DHT22;22740;52.182;8.780;2022-07-06T04:45:54;14.50;99.90
36790;DHT22;22740;52.182;8.780;2022-07-06T04:51:56;14.50;99.90
36790;DHT22;22740;52.182;8.780;2022-07-06T04:57:58;14.40;99.90
36790;DHT22;22740;52.182;8.780;2022-07-06T05:03:59;14.20;99.90
36790;DHT22;22740;52.182;8.780;2022-07-06T05:10:01;14.30;99.90
36790;DHT22;22740;52.182;8.780;2022-07-06T05:16:04;14.50;99.90
36790;DHT22;22740;52.182;8.780;2022-07-06T05:22:06;14.40;99.90
36790;DHT22;22740;52.182;8.780;2022-07-06T05:28:08;14.40;99.90
36790;DHT22;22740;52.182;8.780;2022-07-06T05:34:10;14.60;99.90
36790;DHT22;22740;52.182;8.780;2022-07-06T05:40:12;14.70;99.90
36790;DHT22;22740;52.182;8.780;2022-07-06T05:46:13;14.70;99.90
36790;DHT22;22740;52.182;8.780;2022-07-06T05:52:15;14.80;99.90
36790;DHT22;22740;52.182;8.780;2022-07-06T05:58:17;14.70;99.90
36790;DHT22;22740;52.182;8.780;2022-07-06T06:04:19;14.60;99.90
36790;DHT22;22740;52.182;8.780;2022-07-06T06:10:21;14.70;99.90
36790;DHT22;22740;52.182;8.780;2022-07-06T06:16:26;14.80;99.90
36790;DHT22;22740;52.182;8.780;2022-07-06T06:22:28;15.00;99.90
36790;DHT22;22740;52.182;8.780;2022-07-06T06:28:30;14.90;99.90
36790;DHT22;22740;52.182;8.780;2022-07-06T06:34:32;14.80;99.90
36790;DHT22;22740;52.182;8.780;2022-07-06T06:40:35;14.80;99.90
36790;DHT22;22740;52.182;8.780;2022-07-06T06:46:36;14.90;99.90
36790;DHT22;22740;52.182;8.780;2022-07-06T06:52:39;15.20;99.90
36790;DHT22;22740;52.182;8.780;2022-07-06T06:58:42;15.10;99.90
36790;DHT22;22740;52.182;8.780;2022-07-06T07:05:04;15.20;99.90
36790;DHT22;22740;52.182;8.780;2022-07-06T07:11:06;15.30;99.90
36790;DHT22;22740;52.182;8.780;2022-07-06T07:17:08;15.20;99.90
36790;DHT22;22740;52.182;8.780;2022-07-06T07:23:10;15.30;99.90
36790;DHT22;22740;52.182;8.780;2022-07-06T07:29:12;15.30;99.90
36790;DHT22;22740;52.182;8.780;2022-07-06T07:35:14;15.30;99.90
36790;DHT22;22740;52.182;8.780;2022-07-06T07:41:16;15.50;99.90
36790;DHT22;22740;52.182;8.780;2022-07-06T07:47:18;15.60;99.90
36790;DHT22;22740;52.182;8.780;2022-07-06T07:53:20;15.70;99.90
36790;DHT22;22740;52.182;8.780;2022-07-06T07:59:21;15.90;99.90
36790;DHT22;22740;52.182;8.780;2022-07-06T08:05:23;15.90;99.90
36790;DHT22;22740;52.182;8.780;2022-07-06T08:11:25;15.80;99.90
36790;DHT22;22740;52.182;8.780;2022-07-06T08:17:27;15.90;99.90
36790;DHT22;22740;52.182;8.780;2022-07-06T08:23:29;16.00;99.90
36790;DHT22;22740;52.182;8.780;2022-07-06T08:29:31;16.00;99.90
36790;DHT22;22740;52.182;8.780;2022-07-06T08:35:33;16.10;99.90
36790;DHT22;22740;52.182;8.780;2022-07-06T08:41:36;16.20;99.90
36790;DHT22;22740;52.182;8.780;2022-07-06T08:47:41;16.20;99.90
36790;DHT22;22740;52.182;8.780;2022-07-06T08:53:44;16.30;99.90
36790;DHT22;22740;52.182;8.780;2022-07-06T08:59:47;16.30;99.90
36790;DHT22;22740;52.182;8.780;2022-07-06T09:05:50;16.30;99.90
36790;DHT22;22740;52.182;8.780;2022-07-06T09:11:57;16.20;99.90
36790;DHT22;22740;52.182;8.780;2022-07-06T09:18:04;16.00;99.90
36790;DHT22;22740;52.182;8.780;2022-07-06T09:24:09;16.00;99.90
36790;DHT22;22740;52.182;8.780;2022-07-06T09:30:12;16.10;99.90
36790;DHT22;22740;52.182;8.780;2022-07-06T09:36:14;16.40;99.90
36790;DHT22;22740;52.182;8.780;2022-07-06T09:42:15;17.00;99.90
36790;DHT22;22740;52.182;8.780;2022-07-06T09:48:19;17.10;99.90
36790;DHT22;22740;52.182;8.780;2022-07-06T09:54:24;16.70;99.90
36790;DHT22;22740;52.182;8.780;2022-07-06T10:00:26;16.50;99.90
36790;DHT22;22740;52.182;8.780;2022-07-06T10:06:28;16.40;99.90
36790;DHT22;22740;52.182;8.780;2022-07-06T10:12:30;16.20;99.90
36790;DHT22;22740;52.182;8.780;2022-07-06T10:18:31;16.20;99.90
36790;DHT22;22740;52.182;8.780;2022-07-06T10:24:34;16.20;99.90
36790;DHT22;22740;52.182;8.780;2022-07-06T10:30:42;16.30;99.90
36790;DHT22;22740;52.182;8.780;2022-07-06T10:36:49;16.40;99.90
36790;DHT22;22740;52.182;8.780;2022-07-06T10:43:02;16.50;99.90
36790;DHT22;22740;52.182;8.780;2022-07-06T10:49:15;16.70;99.90
36790;DHT22;22740;52.182;8.780;2022-07-06T10:55:39;17.20;99.90
36790;DHT22;22740;52.182;8.780;2022-07-06T11:02:17;17.70;99.90
36790;DHT22;22740;52.182;8.780;2022-07-06T11:08:19;17.70;99.90
36790;DHT22;22740;52.182;8.780;2022-07-06T11:14:21;17.50;99.90
36790;DHT22;22740;52.182;8.780;2022-07-06T11:20:24;17.40;99.90
36790;DHT22;22740;52.182;8.780;2022-07-06T11:26:27;17.30;99.90
36790;DHT22;22740;52.182;8.780;2022-07-06T11:32:29;17.30;99.90
36790;DHT22;22740;52.182;8.780;2022-07-06T11:38:30;17.20;99.90
36790;DHT22;22740;52.182;8.780;2022-07-06T11:44:33;17.30;99.90
36790;DHT22;22740;52.182;8.780;2022-07-06T11:50:35;17.40;99.90
36790;DHT22;22740;52.182;8.780;2022-07-06T11:56:38;17.50;99.90
36790;DHT22;22740;52.182;8.780;2022-07-06T12:02:59;17.50;99.90
36790;DHT22;22740;52.182;8.780;2022-07-06T12:09:02;17.60;99.90
36790;DHT22;22740;52.182;8.780;2022-07-06T12:15:06;17.50;99.90
36790;DHT22;22740;52.182;8.780;2022-07-06T12:21:17;17.50;99.90
36790;DHT22;22740;52.182;8.780;2022-07-06T12:27:20;18.00;99.90
36790;DHT22;22740;52.182;8.780;2022-07-06T12:33:22;18.60;99.90
36790;DHT22;22740;52.182;8.780;2022-07-06T12:39:27;18.60;99.90
36790;DHT22;22740;52.182;8.780;2022-07-06T12:45:30;18.60;99.90
36790;DHT22;22740;52.182;8.780;2022-07-06T12:51:58;18.30;99.90
36790;DHT22;22740;52.182;8.780;2022-07-06T12:58:00;18.60;99.90
36790;DHT22;22740;52.182;8.780;2022-07-06T13:04:07;19.10;99.90
36790;DHT22;22740;52.182;8.780;2022-07-06T13:10:11;19.50;99.90
36790;DHT22;22740;52.182;8.780;2022-07-06T13:16:13;19.70;99.90
36790;DHT22;22740;52.182;8.780;2022-07-06T13:22:14;19.60;99.90
36790;DHT22;22740;52.182;8.780;2022-07-06T13:28:16;19.10;99.90
36790;DHT22;22740;52.182;8.780;2022-07-06T13:34:18;18.70;99.90
36790;DHT22;22740;52.182;8.780;2022-07-06T13:40:20;18.40;99.90
36790;DHT22;22740;52.182;8.780;2022-07-06T13:46:22;18.50;99.90
36790;DHT22;22740;52.182;8.780;2022-07-06T13:52:23;19.10;99.90
36790;DHT22;22740;52.182;8.780;2022-07-06T13:58:25;19.70;99.90
36790;DHT22;22740;52.182;8.780;2022-07-06T14:04:27;20.00;99.90
36790;DHT22;22740;52.182;8.780;2022-07-06T14:10:29;20.20;99.90
36790;DHT22;22740;52.182;8.780;2022-07-06T14:16:30;19.90;99.90
36790;DHT22;22740;52.182;8.780;2022-07-06T14:22:32;19.80;99.90
36790;DHT22;22740;52.182;8.780;2022-07-06T14:28:35;19.50;99.90
36790;DHT22;22740;52.182;8.780;2022-07-06T14:34:36;19.40;99.90
36790;DHT22;22740;52.182;8.780;2022-07-06T14:40:38;19.80;99.90
36790;DHT22;22740;52.182;8.780;2022-07-06T14:46:40;20.20;99.90
36790;DHT22;22740;52.182;8.780;2022-07-06T14:52:42;19.90;99.90
36790;DHT22;22740;52.182;8.780;2022-07-06T14:58:44;19.70;99.90
36790;DHT22;22740;52.182;8.780;2022-07-06T15:05:06;19.40;99.90
36790;DHT22;22740;52.182;8.780;2022-07-06T15:11:08;19.10;99.90
36790;DHT22;22740;52.182;8.780;2022-07-06T15:17:10;19.00;99.90
36790;DHT22;22740;52.182;8.780;2022-07-06T15:23:12;19.00;99.90
36790;DHT22;22740;52.182;8.780;2022-07-06T15:29:13;19.10;99.90
36790;DHT22;22740;52.182;8.780;2022-07-06T15:35:15;19.10;99.90
36790;DHT22;22740;52.182;8.780;2022-07-06T15:41:17;19.00;99.90
36790;DHT22;22740;52.182;8.780;2022-07-06T15:47:20;19.00;99.90
36790;DHT22;22740;52.182;8.780;2022-07-06T15:53:24;19.20;99.90
36790;DHT22;22740;52.182;8.780;2022-07-06T15:59:26;19.20;99.90
36790;DHT22;22740;52.182;8.780;2022-07-06T16:05:28;19.30;99.90
36790;DHT22;22740;52.182;8.780;2022-07-06T16:11:50;19.10;99.90
36790;DHT22;22740;52.182;8.780;2022-07-06T16:17:52;18.90;99.90
36790;DHT22;22740;52.182;8.780;2022-07-06T16:23:54;18.90;99.90
36790;DHT22;22740;52.182;8.780;2022-07-06T16:29:56;18.80;99.90
36790;DHT22;22740;52.182;8.780;2022-07-06T16:35:58;18.80;99.90
36790;DHT22;22740;52.182;8.780;2022-07-06T16:42:01;18.80;99.90
36790;DHT22;22740;52.182;8.780;2022-07-06T16:48:04;18.80;99.90
36790;DHT22;22740;52.182;8.780;2022-07-06T16:54:07;18.70;99.90
36790;DHT22;22740;52.182;8.780;2022-07-06T17:00:10;18.70;99.90
36790;DHT22;22740;52.182;8.780;2022-07-06T17:06:12;18.60;99.90
36790;DHT22;22740;52.182;8.780;2022-07-06T17:12:14;18.60;99.90
36790;DHT22;22740;52.182;8.780;2022-07-06T17:18:16;18.50;99.90
36790;DHT22;22740;52.182;8.780;2022-07-06T17:24:18;18.50;99.90
36790;DHT22;22740;52.182;8.780;2022-07-06T17:30:20;18.50;99.90
36790;DHT22;22740;52.182;8.780;2022-07-06T17:36:22;18.40;99.90
36790;DHT22;22740;52.182;8.780;2022-07-06T17:42:23;18.40;99.90
36790;DHT22;22740;52.182;8.780;2022-07-06T17:48:26;18.40;99.90
36790;DHT22;22740;52.182;8.780;2022-07-06T17:54:28;18.30;99.90
36790;DHT22;22740;52.182;8.780;2022-07-06T18:00:31;18.20;99.90
36790;DHT22;22740;52.182;8.780;2022-07-06T18:06:33;18.30;99.90
36790;DHT22;22740;52.182;8.780;2022-07-06T18:12:34;18.30;99.90
36790;DHT22;22740;52.182;8.780;2022-07-06T18:18:36;18.20;99.90
36790;DHT22;22740;52.182;8.780;2022-07-06T18:24:38;18.30;99.90
36790;DHT22;22740;52.182;8.780;2022-07-06T18:30:40;18.30;99.90
36790;DHT22;22740;52.182;8.780;2022-07-06T18:36:42;18.20;99.90
36790;DHT22;22740;52.182;8.780;2022-07-06T18:42:44;18.20;99.90
36790;DHT22;22740;52.182;8.780;2022-07-06T18:48:45;18.20;99.90
36790;DHT22;22740;52.182;8.780;2022-07-06T18:54:47;18.20;99.90
36790;DHT22;22740;52.182;8.780;2022-07-06T19:00:49;18.10;99.90
36790;DHT22;22740;52.182;8.780;2022-07-06T19:06:51;18.00;99.90
36790;DHT22;22740;52.182;8.780;2022-07-06T19:12:53;17.90;99.90
36790;DHT22;22740;52.182;8.780;2022-07-06T19:18:55;17.90;99.90
36790;DHT22;22740;52.182;8.780;2022-07-06T19:24:57;17.90;99.90
36790;DHT22;22740;52.182;8.780;2022-07-06T19:30:59;17.80;99.90
36790;DHT22;22740;52.182;8.780;2022-07-06T19:37:00;17.90;99.90
36790;DHT22;22740;52.182;8.780;2022-07-06T19:43:02;17.80;99.90
36790;DHT22;22740;52.182;8.780;2022-07-06T19:49:04;17.90;99.90
36790;DHT22;22740;52.182;8.780;2022-07-06T19:55:06;18.00;99.90
36790;DHT22;22740;52.182;8.780;2022-07-06T20:01:08;17.90;99.90
36790;DHT22;22740;52.182;8.780;2022-07-06T20:07:10;17.70;99.90
36790;DHT22;22740;52.182;8.780;2022-07-06T20:13:12;17.50;99.90
36790;DHT22;22740;52.182;8.780;2022-07-06T20:19:14;17.50;99.90
36790;DHT22;22740;52.182;8.780;2022-07-06T20:25:19;17.40;99.90
36790;DHT22;22740;52.182;8.780;2022-07-06T20:31:21;17.40;99.90
36790;DHT22;22740;52.182;8.780;2022-07-06T20:37:23;17.30;99.90
36790;DHT22;22740;52.182;8.780;2022-07-06T20:43:26;17.20;99.90
36790;DHT22;22740;52.182;8.780;2022-07-06T20:49:27;17.20;99.90
36790;DHT22;22740;52.182;8.780;2022-07-06T20:55:29;17.20;99.90
36790;DHT22;22740;52.182;8.780;2022-07-06T21:01:31;17.00;99.90
36790;DHT22;22740;52.182;8.780;2022-07-06T21:07:34;16.80;99.90
36790;DHT22;22740;52.182;8.780;2022-07-06T21:13:36;16.80;99.90
36790;DHT22;22740;52.182;8.780;2022-07-06T21:19:38;16.80;99.90
36790;DHT22;22740;52.182;8.780;2022-07-06T21:25:40;16.80;99.90
36790;DHT22;22740;52.182;8.780;2022-07-06T21:31:41;17.10;99.90
36790;DHT22;22740;52.182;8.780;2022-07-06T21:37:43;17.10;99.90
36790;DHT22;22740;52.182;8.780;2022-07-06T21:43:45;17.10;99.90
36790;DHT22;22740;52.182;8.780;2022-07-06T21:49:47;17.10;99.90
36790;DHT22;22740;52.182;8.780;2022-07-06T21:55:49;16.90;99.90
36790;DHT22;22740;52.182;8.780;2022-07-06T22:01:52;17.00;99.90
36790;DHT22;22740;52.182;8.780;2022-07-06T22:07:54;17.10;99.90
36790;DHT22;22740;52.182;8.780;2022-07-06T22:13:56;17.00;99.90
36790;DHT22;22740;52.182;8.780;2022-07-06T22:19:58;16.80;99.90
36790;DHT22;22740;52.182;8.780;2022-07-06T22:26:00;16.70;99.90
36790;DHT22;22740;52.182;8.780;2022-07-06T22:32:02;16.70;99.90
36790;DHT22;22740;52.182;8.780;2022-07-06T22:38:05;16.60;99.90
36790;DHT22;22740;52.182;8.780;2022-07-06T22:44:06;16.80;99.90
36790;DHT22;22740;52.182;8.780;2022-07-06T22:50:09;17.00;99.90
36790;DHT22;22740;52.182;8.780;2022-07-06T22:56:11;17.10;99.90
36790;DHT22;22740;52.182;8.780;2022-07-06T23:02:13;17.00;99.90
36790;DHT22;22740;52.182;8.780;2022-07-06T23:08:15;17.00;99.90
36790;DHT22;22740;52.182;8.780;2022-07-06T23:14:17;16.60;99.90
36790;DHT22;22740;52.182;8.780;2022-07-06T23:20:20;16.40;99.90
36790;DHT22;22740;52.182;8.780;2022-07-06T23:26:21;16.40;99.90
36790;DHT22;22740;52.182;8.780;2022-07-06T23:32:23;16.40;99.90
36790;DHT22;22740;52.182;8.780;2022-07-06T23:38:25;16.50;99.90
36790;DHT22;22740;52.182;8.780;2022-07-06T23:44:27;16.40;99.90
36790;DHT22;22740;52.182;8.780;2022-07-06T23:50:29;16.20;99.90
36790;DHT22;22740;52.182;8.780;2022-07-06T23:56:31;16.10;99.90
